createdAt,value
2022-07-30T00:00:31.521Z,98671.66
2022-07-30T00:01:39.499Z,98674.97
2022-07-30T00:02:41.995Z,98676.41
2022-07-30T00:03:43.880Z,98677.95
2022-07-30T00:04:46.138Z,98679.14
2022-07-30T00:05:48.036Z,98681.29
2022-07-30T00:06:49.770Z,98680.35
2022-07-30T00:07:51.443Z,98677.40
2022-07-30T00:08:53.308Z,98671.99
2022-07-30T00:09:55.073Z,98668.66
2022-07-30T00:10:56.865Z,98665.05
2022-07-30T00:11:58.620Z,98663.89
2022-07-30T00:13:03.514Z,98660.23
2022-07-30T00:14:05.365Z,98662.02
2022-07-30T00:15:07.921Z,98659.16
2022-07-30T00:16:09.682Z,98664.93
2022-07-30T00:17:11.775Z,98662.13
2022-07-30T00:18:13.577Z,98665.70
2022-07-30T00:19:15.267Z,98661.41
2022-07-30T00:20:17.246Z,98666.79
2022-07-30T00:21:35.681Z,98662.76
2022-07-30T00:22:38.309Z,98659.39
2022-07-30T00:23:39.954Z,98657.17
2022-07-30T00:25:01.669Z,98655.36
2022-07-30T00:26:03.342Z,98655.52
2022-07-30T00:27:05.344Z,98656.09
2022-07-30T00:28:07.099Z,98653.39
2022-07-30T00:29:09.120Z,98656.48
2022-07-30T00:30:11.989Z,98650.45
2022-07-30T00:31:13.869Z,98648.73
2022-07-30T00:32:15.589Z,98645.54
2022-07-30T00:33:17.251Z,98641.61
2022-07-30T00:34:18.895Z,98638.27
2022-07-30T00:35:20.601Z,98639.88
2022-07-30T00:36:22.545Z,98643.45
2022-07-30T00:37:24.195Z,98640.27
2022-07-30T00:38:25.861Z,98638.54
2022-07-30T00:39:29.633Z,98638.65
2022-07-30T00:40:31.343Z,98638.49
2022-07-30T00:41:33.273Z,98633.36
2022-07-30T00:42:43.877Z,98630.71
2022-07-30T00:43:46.781Z,98631.36
2022-07-30T00:44:48.427Z,98627.63
2022-07-30T00:45:50.161Z,98626.71
2022-07-30T00:46:52.914Z,98623.57
2022-07-30T00:47:54.625Z,98619.55
2022-07-30T00:48:56.328Z,98618.70
2022-07-30T00:49:58.429Z,98611.95
2022-07-30T00:51:00.349Z,98614.40
2022-07-30T00:52:02.114Z,98608.33
2022-07-30T00:53:05.543Z,98606.77
2022-07-30T00:54:07.469Z,98605.06
2022-07-30T00:55:11.742Z,98603.20
2022-07-30T00:56:13.431Z,98600.73
2022-07-30T00:57:15.367Z,98603.08
2022-07-30T00:58:17.346Z,98594.56
2022-07-30T00:59:19.073Z,98604.31
2022-07-30T01:00:21.207Z,98606.31
2022-07-30T01:01:23.392Z,98603.48
2022-07-30T01:02:25.212Z,98603.79
2022-07-30T01:03:27.295Z,98601.08
2022-07-30T01:04:30.246Z,98605.98
2022-07-30T01:05:31.980Z,98604.98
2022-07-30T01:06:33.746Z,98601.94
2022-07-30T01:07:35.751Z,98599.06
2022-07-30T01:08:37.549Z,98600.02
2022-07-30T01:09:39.656Z,98600.48
2022-07-30T01:10:41.376Z,98600.93
2022-07-30T01:11:43.356Z,98595.14
2022-07-30T01:12:45.867Z,98592.61
2022-07-30T01:13:48.483Z,98592.02
2022-07-30T01:14:50.369Z,98591.05
2022-07-30T01:15:52.117Z,98588.25
2022-07-30T01:16:54.880Z,98590.34
2022-07-30T01:18:00.374Z,98591.35
2022-07-30T01:19:26.535Z,98593.19
2022-07-30T01:20:38.787Z,98589.71
2022-07-30T01:21:46.738Z,98590.48
2022-07-30T01:23:10.387Z,98586.77
2022-07-30T01:24:22.196Z,98587.66
2022-07-30T01:25:32.661Z,98585.80
2022-07-30T01:26:34.960Z,98585.19
2022-07-30T01:27:48.680Z,98582.85
2022-07-30T01:28:54.374Z,98579.88
2022-07-30T01:30:01.159Z,98584.34
2022-07-30T01:31:06.840Z,98581.48
2022-07-30T01:32:13.461Z,98578.65
2022-07-30T01:33:18.442Z,98578.27
2022-07-30T01:34:21.788Z,98578.01
2022-07-30T01:35:27.825Z,98581.85
2022-07-30T01:36:32.397Z,98576.45
2022-07-30T01:37:35.789Z,98575.17
2022-07-30T01:38:41.598Z,98574.17
2022-07-30T01:39:44.813Z,98572.95
2022-07-30T01:40:46.968Z,98567.19
2022-07-30T01:41:52.879Z,98565.77
2022-07-30T01:42:58.622Z,98558.31
2022-07-30T01:44:03.195Z,98554.78
2022-07-30T01:45:08.938Z,98554.60
2022-07-30T01:46:13.834Z,98557.20
2022-07-30T01:47:18.764Z,98554.92
2022-07-30T01:48:25.378Z,98555.98
2022-07-30T01:49:29.923Z,98559.15
2022-07-30T01:50:33.764Z,98558.07
2022-07-30T01:51:37.912Z,98561.05
2022-07-30T01:52:43.481Z,98561.66
2022-07-30T01:53:51.821Z,98560.27
2022-07-30T01:54:58.283Z,98557.71
2022-07-30T01:56:03.245Z,98561.27
2022-07-30T01:57:08.349Z,98556.71
2022-07-30T01:58:12.399Z,98558.06
2022-07-30T01:59:19.756Z,98556.38
2022-07-30T02:00:26.659Z,98552.80
2022-07-30T02:01:28.597Z,98552.11
2022-07-30T02:02:36.510Z,98552.94
2022-07-30T02:03:38.342Z,98550.54
2022-07-30T02:04:40.121Z,98551.48
2022-07-30T02:05:46.521Z,98553.36
2022-07-30T02:07:03.537Z,98550.98
2022-07-30T02:08:24.438Z,98549.60
2022-07-30T02:09:35.807Z,98553.56
2022-07-30T02:10:49.605Z,98549.17
2022-07-30T02:12:13.322Z,98546.22
2022-07-30T02:13:22.695Z,98545.75
2022-07-30T02:14:29.658Z,98552.77
2022-07-30T02:15:38.931Z,98549.70
2022-07-30T02:16:46.097Z,98547.45
2022-07-30T02:18:10.503Z,98544.77
2022-07-30T02:19:15.938Z,98549.11
2022-07-30T02:20:19.239Z,98551.64
2022-07-30T02:21:36.619Z,98550.27
2022-07-30T02:22:43.679Z,98546.42
2022-07-30T02:23:48.800Z,98550.15
2022-07-30T02:24:52.329Z,98549.98
2022-07-30T02:25:59.673Z,98549.93
2022-07-30T02:27:08.756Z,98548.89
2022-07-30T02:28:15.337Z,98546.13
2022-07-30T02:29:20.465Z,98543.15
2022-07-30T02:30:28.829Z,98541.91
2022-07-30T02:31:34.093Z,98541.77
2022-07-30T02:32:40.875Z,98542.14
2022-07-30T02:33:49.560Z,98533.55
2022-07-30T02:34:57.534Z,98533.77
2022-07-30T02:36:02.126Z,98530.21
2022-07-30T02:37:07.391Z,98532.98
2022-07-30T02:38:13.502Z,98532.63
2022-07-30T02:39:17.805Z,98531.77
2022-07-30T02:40:22.688Z,98529.76
2022-07-30T02:41:28.424Z,98525.61
2022-07-30T02:42:32.906Z,98530.06
2022-07-30T02:43:37.680Z,98527.73
2022-07-30T02:44:43.782Z,98526.70
2022-07-30T02:45:48.597Z,98520.29
2022-07-30T02:46:54.198Z,98522.55
2022-07-30T02:48:29.200Z,98518.46
2022-07-30T02:49:41.079Z,98517.48
2022-07-30T02:50:45.193Z,98520.73
2022-07-30T02:51:49.386Z,98522.42
2022-07-30T02:52:54.559Z,98528.33
2022-07-30T02:53:59.373Z,98524.40
2022-07-30T02:55:05.371Z,98526.61
2022-07-30T02:56:09.639Z,98528.73
2022-07-30T02:57:14.316Z,98524.92
2022-07-30T02:58:20.647Z,98523.66
2022-07-30T02:59:24.680Z,98525.30
2022-07-30T03:00:29.728Z,98523.63
2022-07-30T03:01:33.690Z,98521.70
2022-07-30T03:02:36.892Z,98519.48
2022-07-30T03:03:45.154Z,98522.95
2022-07-30T03:04:49.183Z,98519.64
2022-07-30T03:05:52.759Z,98521.08
2022-07-30T03:06:56.199Z,98521.16
2022-07-30T03:08:00.214Z,98527.35
2022-07-30T03:09:04.558Z,98526.48
2022-07-30T03:10:08.661Z,98528.10
2022-07-30T03:11:12.460Z,98530.56
2022-07-30T03:12:16.602Z,98533.23
2022-07-30T03:13:21.778Z,98532.20
2022-07-30T03:14:23.695Z,98533.59
2022-07-30T03:15:30.671Z,98537.01
2022-07-30T03:16:38.407Z,98534.44
2022-07-30T03:17:48.970Z,98532.00
2022-07-30T03:18:54.672Z,98532.10
2022-07-30T03:20:01.043Z,98535.98
2022-07-30T03:21:07.072Z,98534.39
2022-07-30T03:22:11.177Z,98529.20
2022-07-30T03:23:18.200Z,98531.95
2022-07-30T03:24:25.389Z,98528.84
2022-07-30T03:25:29.857Z,98527.05
2022-07-30T03:26:34.877Z,98525.58
2022-07-30T03:27:38.594Z,98533.64
2022-07-30T03:28:43.885Z,98532.85
2022-07-30T03:29:48.682Z,98536.79
2022-07-30T03:30:53.658Z,98540.80
2022-07-30T03:31:56.984Z,98540.55
2022-07-30T03:32:59.785Z,98540.53
2022-07-30T03:34:02.591Z,98536.20
2022-07-30T03:35:08.755Z,98538.42
2022-07-30T03:36:19.827Z,98541.48
2022-07-30T03:37:23.617Z,98545.36
2022-07-30T03:38:27.029Z,98542.55
2022-07-30T03:39:34.193Z,98542.81
2022-07-30T03:40:36.170Z,98542.13
2022-07-30T03:41:40.378Z,98538.29
2022-07-30T03:42:50.743Z,98541.20
2022-07-30T03:43:56.692Z,98542.28
2022-07-30T03:44:59.285Z,98542.59
2022-07-30T03:46:05.698Z,98541.59
2022-07-30T03:47:09.569Z,98534.00
2022-07-30T03:48:17.499Z,98536.95
2022-07-30T03:49:24.466Z,98536.23
2022-07-30T03:50:27.959Z,98531.16
2022-07-30T03:51:33.246Z,98531.34
2022-07-30T03:52:40.925Z,98528.20
2022-07-30T03:53:45.200Z,98528.55
2022-07-30T03:55:07.690Z,98528.13
2022-07-30T03:56:24.428Z,98529.54
2022-07-30T03:57:44.566Z,98536.85
2022-07-30T03:58:47.196Z,98538.03
2022-07-30T03:59:51.693Z,98537.44
2022-07-30T04:00:53.917Z,98538.33
2022-07-30T04:02:07.507Z,98533.82
2022-07-30T04:03:34.075Z,98538.30
2022-07-30T04:04:43.354Z,98540.95
2022-07-30T04:05:45.189Z,98543.92
2022-07-30T04:06:47.740Z,98537.37
2022-07-30T04:07:49.758Z,98535.36
2022-07-30T04:08:54.562Z,98531.52
2022-07-30T04:09:57.148Z,98530.11
2022-07-30T04:11:45.770Z,98527.69
2022-07-30T04:12:51.505Z,98523.71
2022-07-30T04:13:55.363Z,98523.95
2022-07-30T04:14:59.667Z,98525.08
2022-07-30T04:16:39.085Z,98522.96
2022-07-30T04:17:38.271Z,98522.07
2022-07-30T04:18:47.543Z,98516.91
2022-07-30T04:19:57.737Z,98519.09
2022-07-30T04:21:04.374Z,98513.80
2022-07-30T04:22:11.486Z,98515.13
2022-07-30T04:23:15.385Z,98514.73
2022-07-30T04:24:20.274Z,98515.71
2022-07-30T04:25:24.536Z,98514.02
2022-07-30T04:26:26.845Z,98518.22
2022-07-30T04:27:31.010Z,98521.46
2022-07-30T04:28:35.046Z,98521.60
2022-07-30T04:29:37.374Z,98519.55
2022-07-30T04:30:40.926Z,98519.52
2022-07-30T04:31:43.153Z,98519.44
2022-07-30T04:33:32.693Z,98520.89
2022-07-30T04:34:50.970Z,98518.73
2022-07-30T04:35:56.853Z,98517.66
2022-07-30T04:37:06.847Z,98518.85
2022-07-30T04:38:10.590Z,98511.95
2022-07-30T04:39:13.619Z,98514.77
2022-07-30T04:40:15.303Z,98513.06
2022-07-30T04:41:17.021Z,98515.31
2022-07-30T04:43:05.423Z,98517.38
2022-07-30T04:44:09.458Z,98516.16
2022-07-30T04:45:15.207Z,98516.67
2022-07-30T04:46:25.288Z,98516.66
2022-07-30T04:47:27.483Z,98520.45
2022-07-30T04:48:48.384Z,98518.88
2022-07-30T04:49:52.971Z,98519.56
2022-07-30T04:50:59.742Z,98519.43
2022-07-30T04:52:04.317Z,98521.34
2022-07-30T04:53:06.318Z,98519.51
2022-07-30T04:54:14.988Z,98520.75
2022-07-30T04:55:20.648Z,98522.91
2022-07-30T04:56:23.456Z,98518.39
2022-07-30T04:57:28.476Z,98518.48
2022-07-30T04:58:34.974Z,98521.02
2022-07-30T04:59:37.289Z,98522.45
2022-07-30T05:00:41.850Z,98520.88
2022-07-30T05:01:50.246Z,98517.14
2022-07-30T05:02:54.415Z,98517.73
2022-07-30T05:04:00.177Z,98517.62
2022-07-30T05:05:03.585Z,98516.19
2022-07-30T05:06:07.590Z,98514.98
2022-07-30T05:07:14.569Z,98517.55
2022-07-30T05:08:16.769Z,98517.27
2022-07-30T05:09:18.722Z,98514.99
2022-07-30T05:10:20.562Z,98516.36
2022-07-30T05:11:22.359Z,98519.17
2022-07-30T05:12:39.933Z,98513.52
2022-07-30T05:13:46.133Z,98512.43
2022-07-30T05:14:48.580Z,98512.36
2022-07-30T05:15:51.198Z,98513.36
2022-07-30T05:16:54.906Z,98511.60
2022-07-30T05:17:58.993Z,98513.98
2022-07-30T05:19:00.752Z,98511.41
2022-07-30T05:20:04.286Z,98512.43
2022-07-30T05:21:13.350Z,98507.34
2022-07-30T05:22:20.286Z,98506.45
2022-07-30T05:23:22.259Z,98508.36
2022-07-30T05:24:32.563Z,98509.05
2022-07-30T05:25:34.333Z,98505.62
2022-07-30T05:27:13.345Z,98505.91
2022-07-30T05:28:15.040Z,98510.69
2022-07-30T05:29:19.371Z,98509.25
2022-07-30T05:30:28.309Z,98508.22
2022-07-30T05:31:32.909Z,98513.31
2022-07-30T05:32:36.926Z,98505.85
2022-07-30T05:33:41.381Z,98505.56
2022-07-30T05:34:45.038Z,98502.63
2022-07-30T05:35:54.288Z,98502.51
2022-07-30T05:36:56.053Z,98504.73
2022-07-30T05:38:00.231Z,98504.48
2022-07-30T05:39:04.113Z,98502.55
2022-07-30T05:40:55.732Z,98504.31
2022-07-30T05:42:25.862Z,98509.20
2022-07-30T05:43:30.816Z,98510.84
2022-07-30T05:44:33.266Z,98511.67
2022-07-30T05:45:35.021Z,98509.71
2022-07-30T05:46:36.906Z,98512.08
2022-07-30T05:47:39.018Z,98509.28
2022-07-30T05:48:40.890Z,98507.39
2022-07-30T05:49:42.763Z,98501.39
2022-07-30T05:50:49.323Z,98500.46
2022-07-30T05:51:51.180Z,98498.48
2022-07-30T05:52:53.014Z,98493.78
2022-07-30T05:54:53.682Z,98490.40
2022-07-30T05:56:13.975Z,98488.48
2022-07-30T05:57:58.163Z,98489.58
2022-07-30T05:59:00.353Z,98491.98
2022-07-30T06:00:49.250Z,98489.19
2022-07-30T06:01:52.357Z,98488.80
2022-07-30T06:02:58.973Z,98490.45
2022-07-30T06:04:00.648Z,98491.77
2022-07-30T06:05:17.286Z,98490.89
2022-07-30T06:06:22.928Z,98491.69
2022-07-30T06:07:25.895Z,98491.09
2022-07-30T06:08:29.328Z,98488.36
2022-07-30T06:09:36.238Z,98487.48
2022-07-30T06:10:39.563Z,98487.95
2022-07-30T06:11:41.314Z,98491.53
2022-07-30T06:12:43.338Z,98491.30
2022-07-30T06:13:45.281Z,98491.86
2022-07-30T06:14:46.961Z,98494.98
2022-07-30T06:15:52.806Z,98497.40
2022-07-30T06:16:54.754Z,98494.32
2022-07-30T06:18:01.881Z,98491.23
2022-07-30T06:19:26.992Z,98498.97
2022-07-30T06:20:29.104Z,98494.11
2022-07-30T06:22:05.609Z,98492.55
2022-07-30T06:23:07.864Z,98494.17
2022-07-30T06:24:23.386Z,98495.91
2022-07-30T06:25:52.292Z,98496.68
2022-07-30T06:26:54.071Z,98493.46
2022-07-30T06:27:56.498Z,98491.17
2022-07-30T06:28:58.491Z,98487.95
2022-07-30T06:30:09.778Z,98486.46
2022-07-30T06:31:11.563Z,98489.41
2022-07-30T06:32:13.294Z,98486.48
2022-07-30T06:33:16.113Z,98487.83
2022-07-30T06:34:17.861Z,98492.88
2022-07-30T06:35:19.675Z,98490.83
2022-07-30T06:36:21.421Z,98490.66
2022-07-30T06:38:05.612Z,98484.88
2022-07-30T06:39:00.239Z,98484.05
2022-07-30T06:40:14.081Z,98479.27
2022-07-30T06:41:29.677Z,98484.30
2022-07-30T06:42:33.315Z,98484.75
2022-07-30T06:44:09.082Z,98481.48
2022-07-30T06:45:29.772Z,98482.14
2022-07-30T06:46:51.506Z,98486.16
2022-07-30T06:47:58.853Z,98486.66
2022-07-30T06:49:05.334Z,98484.33
2022-07-30T06:50:08.260Z,98480.12
2022-07-30T06:51:11.170Z,98485.61
2022-07-30T06:52:18.518Z,98482.14
2022-07-30T06:53:23.263Z,98484.77
2022-07-30T06:55:20.593Z,98488.34
2022-07-30T06:56:25.950Z,98483.75
2022-07-30T06:57:30.669Z,98480.83
2022-07-30T06:58:32.687Z,98480.07
2022-07-30T07:00:00.028Z,98477.27
2022-07-30T07:01:11.186Z,98476.65
2022-07-30T07:02:13.647Z,98469.89
2022-07-30T07:03:59.459Z,98462.98
2022-07-30T07:05:02.078Z,98463.46
2022-07-30T07:06:05.272Z,98465.81
2022-07-30T07:07:12.510Z,98464.23
2022-07-30T07:08:15.354Z,98466.26
2022-07-30T07:09:20.822Z,98466.86
2022-07-30T07:10:30.767Z,98462.81
2022-07-30T07:11:50.495Z,98463.38
2022-07-30T07:12:53.647Z,98466.14
2022-07-30T07:13:55.445Z,98460.19
2022-07-30T07:15:06.343Z,98459.70
2022-07-30T07:16:08.518Z,98462.08
2022-07-30T07:17:11.505Z,98457.30
2022-07-30T07:19:05.121Z,98450.08
2022-07-30T07:20:07.378Z,98452.86
2022-07-30T07:21:20.167Z,98458.30
2022-07-30T07:22:21.858Z,98455.40
2022-07-30T07:23:24.189Z,98456.05
2022-07-30T07:24:27.920Z,98455.27
2022-07-30T07:25:40.216Z,98453.36
2022-07-30T07:26:41.946Z,98451.95
2022-07-30T07:27:44.202Z,98450.02
2022-07-30T07:29:06.119Z,98449.60
2022-07-30T07:30:09.357Z,98454.13
2022-07-30T07:32:05.930Z,98448.52
2022-07-30T07:32:36.010Z,98447.70
2022-07-30T07:33:40.482Z,98448.90
2022-07-30T07:34:42.530Z,98451.27
2022-07-30T07:35:49.579Z,98449.72
2022-07-30T07:36:57.319Z,98448.54
2022-07-30T07:37:59.073Z,98454.50
2022-07-30T07:39:01.506Z,98453.35
2022-07-30T07:40:03.994Z,98451.83
2022-07-30T07:41:07.118Z,98453.33
2022-07-30T07:42:09.089Z,98449.68
2022-07-30T07:43:13.067Z,98452.25
2022-07-30T07:44:14.780Z,98453.32
2022-07-30T07:45:17.415Z,98451.83
2022-07-30T07:46:33.827Z,98450.45
2022-07-30T07:47:51.497Z,98449.46
2022-07-30T07:49:36.323Z,98452.27
2022-07-30T07:50:38.781Z,98455.04
2022-07-30T07:51:47.329Z,98453.77
2022-07-30T07:52:49.849Z,98443.16
2022-07-30T07:54:18.703Z,98445.45
2022-07-30T07:55:13.475Z,98447.04
2022-07-30T07:56:15.845Z,98443.02
2022-07-30T07:57:17.848Z,98441.14
2022-07-30T07:58:26.160Z,98442.10
2022-07-30T07:59:35.953Z,98439.27
2022-07-30T08:00:46.230Z,98434.06
2022-07-30T08:01:49.932Z,98434.54
2022-07-30T08:03:10.442Z,98438.52
2022-07-30T08:04:12.419Z,98438.52
2022-07-30T08:06:15.158Z,98441.17
2022-07-30T08:07:44.348Z,98442.89
2022-07-30T08:09:04.734Z,98449.41
2022-07-30T08:10:36.743Z,98447.95
2022-07-30T08:11:44.141Z,98449.92
2022-07-30T08:13:52.083Z,98452.64
2022-07-30T08:15:31.353Z,98452.42
2022-07-30T08:16:51.795Z,98454.48
2022-07-30T08:18:26.683Z,98453.27
2022-07-30T08:20:18.130Z,98450.55
2022-07-30T08:21:20.117Z,98449.64
2022-07-30T08:22:21.843Z,98453.82
2022-07-30T08:23:24.433Z,98453.48
2022-07-30T08:24:26.203Z,98449.81
2022-07-30T08:25:28.334Z,98449.85
2022-07-30T08:26:30.029Z,98450.92
2022-07-30T08:27:34.573Z,98455.76
2022-07-30T08:28:37.817Z,98457.98
2022-07-30T08:29:41.628Z,98459.36
2022-07-30T08:30:43.604Z,98459.61
2022-07-30T08:31:45.594Z,98462.01
2022-07-30T08:32:47.464Z,98459.52
2022-07-30T08:33:49.193Z,98457.64
2022-07-30T08:34:51.329Z,98460.84
2022-07-30T08:35:55.751Z,98460.20
2022-07-30T08:37:04.562Z,98456.86
2022-07-30T08:38:06.300Z,98458.30
2022-07-30T08:39:09.475Z,98459.52
2022-07-30T08:40:12.210Z,98456.14
2022-07-30T08:41:25.400Z,98455.95
2022-07-30T08:42:27.466Z,98453.63
2022-07-30T08:43:29.445Z,98452.27
2022-07-30T08:44:33.461Z,98448.06
2022-07-30T08:45:35.559Z,98443.19
2022-07-30T08:46:57.307Z,98441.46
2022-07-30T08:48:20.845Z,98439.27
2022-07-30T08:49:23.455Z,98441.62
2022-07-30T08:50:26.153Z,98444.06
2022-07-30T08:52:23.993Z,98442.77
2022-07-30T08:53:35.868Z,98442.41
2022-07-30T08:54:40.442Z,98441.67
2022-07-30T08:55:42.387Z,98441.63
2022-07-30T08:56:44.536Z,98439.80
2022-07-30T08:57:47.286Z,98436.77
2022-07-30T08:58:50.077Z,98440.02
2022-07-30T09:00:01.296Z,98436.77
2022-07-30T09:01:05.769Z,98435.55
2022-07-30T09:02:12.099Z,98434.37
2022-07-30T09:03:24.236Z,98435.36
2022-07-30T09:04:26.008Z,98436.37
2022-07-30T09:05:28.154Z,98437.63
2022-07-30T09:06:30.092Z,98434.40
2022-07-30T09:07:33.756Z,98436.15
2022-07-30T09:08:36.347Z,98437.03
2022-07-30T09:09:38.314Z,98435.42
2022-07-30T09:10:42.386Z,98434.05
2022-07-30T09:11:54.529Z,98435.00
2022-07-30T09:12:56.273Z,98434.48
2022-07-30T09:14:09.001Z,98435.29
2022-07-30T09:15:20.433Z,98436.39
2022-07-30T09:16:26.695Z,98440.79
2022-07-30T09:17:48.415Z,98437.80
2022-07-30T09:18:51.806Z,98444.58
2022-07-30T09:20:06.487Z,98448.58
2022-07-30T09:21:20.819Z,98452.80
2022-07-30T09:22:42.909Z,98451.61
2022-07-30T09:24:43.265Z,98459.55
2022-07-30T09:26:03.309Z,98458.73
2022-07-30T09:27:23.656Z,98453.33
2022-07-30T09:29:17.131Z,98447.05
2022-07-30T09:30:53.663Z,98445.61
2022-07-30T09:32:14.067Z,98449.31
2022-07-30T09:33:40.299Z,98448.98
2022-07-30T09:35:32.014Z,98450.34
2022-07-30T09:36:45.319Z,98449.64
2022-07-30T09:38:06.767Z,98451.95
2022-07-30T09:39:38.551Z,98446.64
2022-07-30T09:40:58.269Z,98445.92
2022-07-30T09:42:28.752Z,98446.79
2022-07-30T09:43:32.600Z,98447.61
2022-07-30T09:44:46.501Z,98450.34
2022-07-30T09:45:57.879Z,98450.95
2022-07-30T09:47:01.291Z,98448.69
2022-07-30T09:48:21.269Z,98444.69
2022-07-30T09:49:26.132Z,98446.97
2022-07-30T09:50:30.535Z,98441.89
2022-07-30T09:51:56.006Z,98444.23
2022-07-30T09:53:09.069Z,98439.66
2022-07-30T09:54:12.146Z,98434.86
2022-07-30T09:55:14.776Z,98438.06
2022-07-30T09:56:30.194Z,98437.17
2022-07-30T09:57:32.449Z,98438.75
2022-07-30T09:58:45.496Z,98436.80
2022-07-30T09:59:48.311Z,98436.56
2022-07-30T10:00:58.274Z,98437.71
2022-07-30T10:02:19.455Z,98438.77
2022-07-30T10:03:48.615Z,98436.97
2022-07-30T10:05:15.316Z,98435.03
2022-07-30T10:06:17.557Z,98431.52
2022-07-30T10:07:24.839Z,98428.33
2022-07-30T10:08:39.868Z,98431.45
2022-07-30T10:09:45.280Z,98429.70
2022-07-30T10:10:50.871Z,98432.06
2022-07-30T10:11:56.042Z,98434.17
2022-07-30T10:13:01.309Z,98430.17
2022-07-30T10:14:06.892Z,98431.79
2022-07-30T10:15:11.550Z,98425.08
2022-07-30T10:16:16.593Z,98426.90
2022-07-30T10:17:20.691Z,98422.23
2022-07-30T10:19:23.433Z,98421.59
2022-07-30T10:21:01.612Z,98425.99
2022-07-30T10:22:50.525Z,98423.92
2022-07-30T10:24:17.022Z,98424.63
2022-07-30T10:25:56.989Z,98429.04
2022-07-30T10:27:40.122Z,98428.67
2022-07-30T10:29:01.214Z,98427.77
2022-07-30T10:30:05.800Z,98428.00
2022-07-30T10:31:46.471Z,98431.89
2022-07-30T10:32:31.027Z,98428.82
2022-07-30T10:33:34.416Z,98431.83
2022-07-30T10:34:42.424Z,98431.13
2022-07-30T10:35:44.611Z,98426.23
2022-07-30T10:36:57.859Z,98425.59
2022-07-30T10:38:01.039Z,98420.96
2022-07-30T10:39:03.700Z,98420.98
2022-07-30T10:40:17.256Z,98417.25
2022-07-30T10:41:42.568Z,98420.23
2022-07-30T10:43:17.076Z,98413.07
2022-07-30T10:45:17.512Z,98411.63
2022-07-30T10:46:47.466Z,98412.72
2022-07-30T10:47:52.246Z,98409.86
2022-07-30T10:48:55.617Z,98401.83
2022-07-30T10:50:10.440Z,98405.20
2022-07-30T10:51:12.470Z,98403.55
2022-07-30T10:52:52.028Z,98400.24
2022-07-30T10:53:53.702Z,98402.01
2022-07-30T10:54:56.186Z,98404.30
2022-07-30T10:56:19.020Z,98402.30
2022-07-30T10:57:32.079Z,98405.87
2022-07-30T10:58:59.140Z,98398.56
2022-07-30T11:00:03.957Z,98400.77
2022-07-30T11:01:05.973Z,98398.54
2022-07-30T11:02:20.608Z,98397.64
2022-07-30T11:03:40.265Z,98394.00
2022-07-30T11:04:43.528Z,98394.85
2022-07-30T11:05:48.179Z,98389.73
2022-07-30T11:06:50.815Z,98391.19
2022-07-30T11:07:52.678Z,98389.99
2022-07-30T11:08:57.116Z,98393.33
2022-07-30T11:10:05.624Z,98392.05
2022-07-30T11:12:01.334Z,98394.13
2022-07-30T11:12:46.017Z,98388.46
2022-07-30T11:14:05.052Z,98389.99
2022-07-30T11:15:18.218Z,98389.64
2022-07-30T11:16:23.515Z,98389.32
2022-07-30T11:17:25.242Z,98392.48
2022-07-30T11:18:28.805Z,98388.16
2022-07-30T11:19:55.602Z,98386.60
2022-07-30T11:21:21.279Z,98392.70
2022-07-30T11:22:38.859Z,98386.73
2022-07-30T11:23:43.222Z,98386.43
2022-07-30T11:24:46.766Z,98389.66
2022-07-30T11:25:51.754Z,98386.35
2022-07-30T11:26:54.081Z,98386.19
2022-07-30T11:27:57.554Z,98384.31
2022-07-30T11:28:59.276Z,98383.49
2022-07-30T11:30:03.045Z,98386.04
2022-07-30T11:31:37.108Z,98386.94
2022-07-30T11:32:53.578Z,98379.71
2022-07-30T11:34:18.201Z,98384.52
2022-07-30T11:35:32.233Z,98387.06
2022-07-30T11:36:37.630Z,98384.80
2022-07-30T11:37:58.710Z,98383.08
2022-07-30T11:39:07.406Z,98382.86
2022-07-30T11:40:10.402Z,98379.55
2022-07-30T11:41:12.863Z,98376.05
2022-07-30T11:42:32.465Z,98376.92
2022-07-30T11:43:37.058Z,98374.80
2022-07-30T11:44:38.901Z,98373.87
2022-07-30T11:45:41.637Z,98372.27
2022-07-30T11:46:49.741Z,98371.88
2022-07-30T11:47:57.388Z,98373.89
2022-07-30T11:49:08.527Z,98374.64
2022-07-30T11:50:23.844Z,98374.30
2022-07-30T11:51:26.905Z,98374.77
2022-07-30T11:52:29.129Z,98374.26
2022-07-30T11:53:31.258Z,98380.95
2022-07-30T11:54:33.726Z,98377.77
2022-07-30T11:55:44.224Z,98376.20
2022-07-30T11:56:51.315Z,98379.65
2022-07-30T11:57:54.364Z,98383.35
2022-07-30T11:59:04.622Z,98376.14
2022-07-30T12:00:07.051Z,98382.26
2022-07-30T12:01:17.750Z,98381.11
2022-07-30T12:02:19.550Z,98378.40
2022-07-30T12:03:23.791Z,98376.30
2022-07-30T12:04:25.589Z,98381.31
2022-07-30T12:05:28.129Z,98377.42
2022-07-30T12:06:32.023Z,98376.51
2022-07-30T12:07:33.826Z,98375.81
2022-07-30T12:08:43.302Z,98374.25
2022-07-30T12:09:44.951Z,98375.50
2022-07-30T12:10:59.818Z,98373.62
2022-07-30T12:12:02.409Z,98369.73
2022-07-30T12:13:13.579Z,98372.44
2022-07-30T12:14:15.322Z,98368.45
2022-07-30T12:15:35.591Z,98371.16
2022-07-30T12:16:37.357Z,98366.40
2022-07-30T12:17:46.485Z,98371.52
2022-07-30T12:18:48.402Z,98368.94
2022-07-30T12:19:51.534Z,98369.55
2022-07-30T12:21:08.434Z,98367.97
2022-07-30T12:22:10.153Z,98368.31
2022-07-30T12:23:13.753Z,98366.35
2022-07-30T12:24:15.737Z,98363.93
2022-07-30T12:25:17.769Z,98360.79
2022-07-30T12:26:26.773Z,98360.65
2022-07-30T12:27:28.718Z,98362.13
2022-07-30T12:28:33.889Z,98358.39
2022-07-30T12:29:36.303Z,98355.61
2022-07-30T12:30:39.624Z,98357.86
2022-07-30T12:31:42.427Z,98358.00
2022-07-30T12:32:45.402Z,98360.86
2022-07-30T12:33:47.630Z,98358.90
2022-07-30T12:34:58.356Z,98356.59
2022-07-30T12:36:01.072Z,98355.98
2022-07-30T12:37:10.127Z,98357.16
2022-07-30T12:38:13.454Z,98356.20
2022-07-30T12:39:25.089Z,98356.52
2022-07-30T12:40:26.833Z,98354.08
2022-07-30T12:41:46.861Z,98349.17
2022-07-30T12:42:53.538Z,98348.46
2022-07-30T12:43:56.357Z,98351.48
2022-07-30T12:44:58.370Z,98344.77
2022-07-30T12:46:00.437Z,98344.40
2022-07-30T12:47:04.638Z,98346.81
2022-07-30T12:48:11.310Z,98346.39
2022-07-30T12:49:22.032Z,98342.34
2022-07-30T12:50:25.721Z,98347.89
2022-07-30T12:51:32.530Z,98347.95
2022-07-30T12:52:37.700Z,98350.70
2022-07-30T12:53:39.556Z,98349.19
2022-07-30T12:54:41.564Z,98351.05
2022-07-30T12:55:44.379Z,98351.05
2022-07-30T12:57:05.985Z,98349.83
2022-07-30T12:58:09.127Z,98346.83
2022-07-30T12:59:22.395Z,98345.61
2022-07-30T13:00:27.514Z,98350.36
2022-07-30T13:01:47.000Z,98344.35
2022-07-30T13:02:48.849Z,98346.75
2022-07-30T13:03:50.826Z,98343.98
2022-07-30T13:05:00.162Z,98346.42
2022-07-30T13:06:17.037Z,98343.95
2022-07-30T13:07:18.998Z,98339.16
2022-07-30T13:08:21.554Z,98342.40
2022-07-30T13:09:23.216Z,98337.71
2022-07-30T13:10:30.772Z,98336.95
2022-07-30T13:11:49.053Z,98335.80
2022-07-30T13:12:50.948Z,98337.23
2022-07-30T13:13:53.179Z,98336.63
2022-07-30T13:14:54.830Z,98344.58
2022-07-30T13:16:05.081Z,98343.39
2022-07-30T13:17:07.233Z,98338.73
2022-07-30T13:18:08.941Z,98339.49
2022-07-30T13:19:12.280Z,98337.21
2022-07-30T13:20:16.038Z,98341.52
2022-07-30T13:21:17.698Z,98339.52
2022-07-30T13:22:19.659Z,98337.59
2022-07-30T13:23:21.710Z,98338.05
2022-07-30T13:24:23.444Z,98340.48
2022-07-30T13:25:25.265Z,98336.68
2022-07-30T13:26:40.441Z,98336.10
2022-07-30T13:27:42.177Z,98332.61